createdAt,value
2022-12-27T00:04:39.421Z,2.32
2022-12-27T00:09:40.805Z,2.26
2022-12-27T00:14:42.129Z,2.38
2022-12-27T00:19:43.474Z,2.47
2022-12-27T00:24:44.867Z,2.56
2022-12-27T00:29:46.215Z,2.68
2022-12-27T00:34:47.561Z,2.39
2022-12-27T00:39:48.939Z,2.29
2022-12-27T00:44:50.270Z,2.19
2022-12-27T00:49:51.608Z,2.14
2022-12-27T00:54:53.148Z,1.95
2022-12-27T00:59:54.476Z,2.26
2022-12-27T01:04:57.359Z,2.17
2022-12-27T01:09:58.971Z,2.24
2022-12-27T01:15:00.313Z,2.24
2022-12-27T01:20:01.747Z,2.34
2022-12-27T01:25:03.147Z,2.38
2022-12-27T01:30:05.107Z,2.11
2022-12-27T01:35:06.533Z,2.08
2022-12-27T01:40:08.106Z,2.31
2022-12-27T01:45:20.328Z,2.59
2022-12-27T01:50:27.701Z,2.63
2022-12-27T01:55:42.747Z,2.49
2022-12-27T02:00:45.310Z,2.43
2022-12-27T02:05:46.767Z,2.46
2022-12-27T02:10:49.083Z,2.16
2022-12-27T02:15:50.533Z,2.10
2022-12-27T02:21:10.702Z,2.36
2022-12-27T02:26:31.197Z,2.58
2022-12-27T02:31:40.376Z,2.51
2022-12-27T02:36:43.202Z,2.46
2022-12-27T02:42:03.871Z,2.50
2022-12-27T02:47:42.088Z,2.46
2022-12-27T02:53:04.517Z,2.22
2022-12-27T02:58:08.939Z,2.11
2022-12-27T03:03:26.465Z,2.60
2022-12-27T03:08:34.824Z,2.59
2022-12-27T03:14:01.494Z,2.49
2022-12-27T03:19:10.332Z,2.29
2022-12-27T03:24:31.483Z,2.10
2022-12-27T03:29:52.278Z,2.04
2022-12-27T03:34:56.030Z,1.96
2022-12-27T03:40:07.061Z,2.02
2022-12-27T03:45:08.798Z,1.95
2022-12-27T03:50:13.192Z,1.81
2022-12-27T03:55:15.386Z,1.72
2022-12-27T04:00:17.013Z,1.74
2022-12-27T04:05:19.293Z,1.82
2022-12-27T04:10:39.377Z,1.70
2022-12-27T04:15:59.374Z,1.47
2022-12-27T04:21:19.257Z,1.35
2022-12-27T04:26:39.066Z,1.22
2022-12-27T04:31:58.925Z,1.17
2022-12-27T04:37:00.238Z,1.29
2022-12-27T04:42:20.085Z,1.25
2022-12-27T04:47:41.119Z,1.06
2022-12-27T04:53:01.045Z,1.00
2022-12-27T04:58:02.398Z,1.00
2022-12-27T05:03:05.327Z,0.94
2022-12-27T05:08:26.283Z,0.89
2022-12-27T05:13:50.717Z,0.91
2022-12-27T05:18:52.456Z,0.80
2022-12-27T05:24:12.453Z,0.67
2022-12-27T05:29:13.943Z,0.60
2022-12-27T05:34:15.309Z,0.90
2022-12-27T05:39:16.642Z,1.29
2022-12-27T05:44:17.958Z,1.52
2022-12-27T05:49:19.286Z,1.63
2022-12-27T05:54:20.690Z,1.84
2022-12-27T05:59:22.027Z,1.74
2022-12-27T06:04:23.332Z,1.80
2022-12-27T06:09:25.055Z,1.84
2022-12-27T06:14:26.373Z,1.99
2022-12-27T06:19:27.703Z,2.04
2022-12-27T06:24:29.022Z,2.10
2022-12-27T06:29:30.444Z,2.04
2022-12-27T06:34:31.913Z,1.76
2022-12-27T06:39:33.254Z,1.58
2022-12-27T06:44:34.611Z,1.52
2022-12-27T06:49:35.984Z,1.30
2022-12-27T06:54:37.316Z,1.21
2022-12-27T06:59:38.642Z,1.00
2022-12-27T07:04:40.001Z,0.90
2022-12-27T07:09:41.333Z,0.81
2022-12-27T07:14:42.687Z,0.74
2022-12-27T07:19:44.034Z,0.77
2022-12-27T07:24:45.342Z,0.74
2022-12-27T07:29:46.737Z,0.67
2022-12-27T07:34:48.039Z,0.64
2022-12-27T07:39:49.378Z,0.58
2022-12-27T07:44:50.903Z,0.60
2022-12-27T07:49:52.272Z,0.69
2022-12-27T07:54:53.587Z,0.78
2022-12-27T07:59:54.904Z,0.69
2022-12-27T08:04:56.218Z,0.78
2022-12-27T08:09:57.701Z,0.71
2022-12-27T08:14:59.043Z,0.61
2022-12-27T08:20:00.389Z,0.68
2022-12-27T08:25:01.851Z,0.75
2022-12-27T08:30:05.207Z,0.93
2022-12-27T08:35:42.039Z,1.27
2022-12-27T08:40:28.141Z,1.61
2022-12-27T08:45:29.468Z,1.96
2022-12-27T08:50:31.192Z,1.87
2022-12-27T08:55:32.998Z,2.02
2022-12-27T09:00:34.387Z,2.50
2022-12-27T09:05:41.488Z,2.97
2022-12-27T09:10:43.444Z,3.69
2022-12-27T09:15:44.856Z,4.40
2022-12-27T09:20:46.177Z,5.03
2022-12-27T09:25:47.522Z,5.55
2022-12-27T09:30:48.934Z,6.74
2022-12-27T09:35:50.313Z,7.90
2022-12-27T09:40:55.478Z,8.81
2022-12-27T09:45:57.683Z,8.07
2022-12-27T09:51:02.092Z,7.56
2022-12-27T09:56:04.461Z,7.84
2022-12-27T10:01:21.541Z,8.34
2022-12-27T10:06:26.136Z,8.34
2022-12-27T10:11:36.526Z,9.15
2022-12-27T10:16:53.423Z,9.63
2022-12-27T10:22:15.019Z,10.17
2022-12-27T10:27:20.728Z,10.01
2022-12-27T10:32:22.523Z,10.09
2022-12-27T10:37:23.919Z,10.01
2022-12-27T10:42:32.120Z,10.76
2022-12-27T10:47:33.501Z,10.78
2022-12-27T10:52:35.664Z,11.17
2022-12-27T10:57:36.995Z,10.55
2022-12-27T11:02:48.869Z,9.68
2022-12-27T11:07:50.581Z,9.88
2022-12-27T11:13:02.908Z,9.62
2022-12-27T11:18:10.686Z,9.99
2022-12-27T11:23:15.067Z,10.10
2022-12-27T11:28:22.529Z,11.10
2022-12-27T11:33:34.126Z,10.00
2022-12-27T11:38:36.981Z,10.12
2022-12-27T11:43:47.416Z,10.27
2022-12-27T11:48:50.609Z,10.53
2022-12-27T11:54:01.946Z,10.18
2022-12-27T11:59:22.104Z,9.81
2022-12-27T12:04:39.599Z,10.87
2022-12-27T12:09:49.434Z,10.65
2022-12-27T12:15:17.188Z,10.65
2022-12-27T12:20:21.293Z,10.14
2022-12-27T12:25:31.816Z,10.64
2022-12-27T12:30:45.604Z,10.35
2022-12-27T12:35:51.914Z,10.52
2022-12-27T12:41:05.122Z,10.92
2022-12-27T12:46:15.506Z,10.22
2022-12-27T12:51:26.021Z,10.56
2022-12-27T12:56:41.933Z,11.02
2022-12-27T13:01:52.677Z,11.04
2022-12-27T13:07:06.803Z,10.58
2022-12-27T13:12:11.976Z,10.19
2022-12-27T13:17:24.011Z,9.50
2022-12-27T13:22:39.824Z,10.02
2022-12-27T13:27:47.839Z,9.31
2022-12-27T13:32:49.139Z,8.86
2022-12-27T13:37:56.578Z,9.71
2022-12-27T13:43:16.720Z,9.46
2022-12-27T13:48:38.914Z,9.01
2022-12-27T13:53:52.588Z,9.23
2022-12-27T13:59:11.959Z,9.02
2022-12-27T14:04:24.050Z,9.37
2022-12-27T14:09:49.907Z,9.47
2022-12-27T14:14:51.931Z,9.35
2022-12-27T14:20:12.115Z,9.55
2022-12-27T14:25:28.768Z,8.53
2022-12-27T14:30:45.356Z,8.16
2022-12-27T14:36:02.086Z,7.70
2022-12-27T14:41:22.277Z,7.45
2022-12-27T14:46:42.680Z,6.99
2022-12-27T14:52:00.905Z,6.72
2022-12-27T14:57:10.106Z,6.47
2022-12-27T15:02:26.943Z,6.27
2022-12-27T15:07:43.380Z,6.29
2022-12-27T15:12:50.591Z,6.35
2022-12-27T15:18:04.065Z,6.27
2022-12-27T15:23:24.367Z,6.18
2022-12-27T15:28:34.827Z,6.01
2022-12-27T15:33:36.191Z,5.96
2022-12-27T15:38:41.167Z,5.96
2022-12-27T15:43:54.824Z,5.85
2022-12-27T15:49:15.057Z,5.85
2022-12-27T15:54:22.569Z,5.77
2022-12-27T15:59:36.745Z,5.63
2022-12-27T16:04:41.529Z,5.57
2022-12-27T16:09:42.925Z,5.50
2022-12-27T16:14:44.410Z,5.36
2022-12-27T16:19:51.867Z,5.16
2022-12-27T16:24:53.600Z,4.99
2022-12-27T16:29:56.827Z,4.91
2022-12-27T16:35:12.029Z,4.79
2022-12-27T16:40:13.333Z,4.66
2022-12-27T16:45:23.885Z,4.53
2022-12-27T16:50:40.956Z,4.46
2022-12-27T16:55:51.782Z,4.38
2022-12-27T17:00:57.034Z,4.30
2022-12-27T17:06:30.778Z,4.24
2022-12-27T17:11:24.867Z,4.12
2022-12-27T17:16:28.003Z,4.08
2022-12-27T17:21:30.453Z,4.03
2022-12-27T17:26:51.716Z,3.99
2022-12-27T17:31:57.348Z,3.96
2022-12-27T17:37:11.454Z,3.81
2022-12-27T17:42:38.068Z,3.74
2022-12-27T17:47:48.135Z,3.64
2022-12-27T17:53:22.352Z,3.66
2022-12-27T17:58:23.728Z,3.66
2022-12-27T18:03:29.167Z,3.73
2022-12-27T18:08:33.994Z,3.73
2022-12-27T18:13:37.855Z,3.89
2022-12-27T18:18:39.310Z,3.85
2022-12-27T18:23:41.520Z,3.78
2022-12-27T18:28:43.338Z,3.72
2022-12-27T18:33:52.112Z,3.64
2022-12-27T18:39:01.104Z,3.57
2022-12-27T18:44:02.522Z,3.58
2022-12-27T18:49:04.306Z,3.63
2022-12-27T18:54:41.149Z,3.69
2022-12-27T18:59:42.485Z,3.66
2022-12-27T19:04:44.104Z,3.66
2022-12-27T19:09:48.424Z,3.55
2022-12-27T19:14:49.967Z,3.52
2022-12-27T19:19:53.227Z,3.41
2022-12-27T19:24:59.164Z,3.51
2022-12-27T19:30:00.580Z,3.49
2022-12-27T19:35:03.147Z,3.49
2022-12-27T19:40:04.899Z,3.36
2022-12-27T19:45:06.463Z,3.30
2022-12-27T19:50:07.937Z,3.38
2022-12-27T19:55:15.506Z,3.42
2022-12-27T20:00:17.644Z,3.36
2022-12-27T20:06:12.627Z,3.47
2022-12-27T20:10:40.303Z,3.44
2022-12-27T20:15:41.623Z,3.44
2022-12-27T20:20:43.221Z,3.46
2022-12-27T20:25:45.665Z,3.40
2022-12-27T20:30:47.165Z,3.41
2022-12-27T20:35:55.844Z,3.41
2022-12-27T20:41:04.752Z,3.48
2022-12-27T20:46:07.208Z,3.44
2022-12-27T20:51:09.486Z,3.33
2022-12-27T20:56:12.846Z,3.44
2022-12-27T21:01:15.565Z,3.44
2022-12-27T21:06:18.682Z,3.35
2022-12-27T21:11:21.723Z,3.37
2022-12-27T21:16:24.868Z,3.39
2022-12-27T21:21:28.397Z,3.43
2022-12-27T21:26:31.999Z,3.55
2022-12-27T21:31:33.786Z,3.33
2022-12-27T21:36:35.489Z,3.28
2022-12-27T21:41:39.066Z,3.37
2022-12-27T21:46:41.699Z,3.44
2022-12-27T21:51:43.631Z,3.36
2022-12-27T21:56:45.079Z,3.39
2022-12-27T22:01:50.163Z,3.45
2022-12-27T22:06:53.948Z,3.48
2022-12-27T22:11:55.253Z,3.62
2022-12-27T22:16:56.586Z,3.53
2022-12-27T22:21:57.928Z,3.47
2022-12-27T22:26:59.241Z,3.47
2022-12-27T22:32:00.660Z,3.38
2022-12-27T22:37:01.980Z,3.48
2022-12-27T22:42:03.339Z,3.60
2022-12-27T22:47:25.606Z,3.66
2022-12-27T22:52:25.998Z,3.78
2022-12-27T22:57:27.351Z,3.97
2022-12-27T23:02:28.712Z,3.96
2022-12-27T23:08:05.117Z,3.86
2022-12-27T23:12:51.520Z,3.82
2022-12-27T23:17:53.120Z,3.94
2022-12-27T23:22:54.451Z,3.98
2022-12-27T23:27:55.761Z,4.01
2022-12-27T23:32:57.282Z,4.01
2022-12-27T23:37:58.585Z,4.03
2022-12-27T23:43:18.744Z,4.17
2022-12-27T23:48:21.179Z,4.21
2022-12-27T23:53:22.523Z,4.37
2022-12-27T23:58:23.912Z,4.46
